Time;durP1;ratioP1;P1;durP2;ratioP2;P2;SDS_P1;SDS_P2;PMS_P1;PMS_P2;Temp;Humidity;BMP_temperature;BMP_pressure;BME280_temperature;BME280_humidity;BME280_pressure;Samples;Min_cycle;Max_cycle;Signal;HPM_P1;HPM_P2
2023/01/31 00:01:22;;;;;;;7.97;5.13;;;-0.90;99.90;;;;;;5052694;28;20414;-76
2023/01/31 00:03:53;;;;;;;7.80;4.85;;;-0.90;99.90;;;;;;5051036;28;20052;-76
2023/01/31 00:06:22;;;;;;;6.47;4.22;;;-1.00;99.90;;;;;;5052478;28;20095;-75
2023/01/31 00:08:49;;;;;;;7.80;3.67;;;-0.90;99.90;;;;;;5047975;28;20400;-76
2023/01/31 00:11:17;;;;;;;7.47;4.67;;;-1.00;99.90;;;;;;5052709;28;20036;-74
2023/01/31 00:13:43;;;;;;;8.45;5.72;;;-1.00;99.90;;;;;;5051280;28;20020;-76
2023/01/31 00:16:11;;;;;;;7.80;5.35;;;-1.00;99.90;;;;;;5034417;28;20028;-77
2023/01/31 00:18:37;;;;;;;;;;;-1.00;99.90;;;;;;5034675;28;20049;-76
2023/01/31 00:21:10;;;;;;;9.70;5.65;;;-0.90;99.90;;;;;;5052451;28;19905;-76
2023/01/31 00:23:37;;;;;;;8.60;5.50;;;-0.90;99.90;;;;;;5052162;28;20061;-76
2023/01/31 00:26:30;;;;;;;6.95;4.43;;;-0.90;99.90;;;;;;5052063;28;20100;-76
2023/01/31 00:28:59;;;;;;;8.93;5.32;;;-0.90;99.90;;;;;;5028307;28;20040;-75
2023/01/31 00:31:27;;;;;;;8.18;5.63;;;-0.90;99.90;;;;;;5052102;28;20017;-76
2023/01/31 00:33:55;;;;;;;8.88;5.70;;;-0.80;99.90;;;;;;5051919;28;20135;-77
2023/01/31 00:36:25;;;;;;;7.45;5.03;;;-0.90;99.90;;;;;;5050010;28;20022;-75
2023/01/31 00:38:53;;;;;;;7.40;4.55;;;-0.90;99.90;;;;;;5044868;28;20037;-76
2023/01/31 00:41:21;;;;;;;8.27;4.70;;;-0.90;99.90;;;;;;5052067;28;20021;-77
2023/01/31 00:43:47;;;;;;;8.00;5.30;;;-0.90;99.90;;;;;;5051550;28;20017;-76
2023/01/31 00:46:13;;;;;;;8.20;5.43;;;-0.80;99.90;;;;;;5051729;28;20037;-75
2023/01/31 00:48:39;;;;;;;7.43;4.43;;;-0.80;99.90;;;;;;5051872;28;20040;-76
2023/01/31 00:51:05;;;;;;;8.82;5.20;;;-0.80;99.90;;;;;;5051806;28;20025;-77
2023/01/31 00:53:32;;;;;;;7.38;5.22;;;-0.80;99.90;;;;;;5050676;28;20017;-76
2023/01/31 00:56:04;;;;;;;6.50;4.35;;;-0.70;99.90;;;;;;5051375;28;20056;-75
2023/01/31 00:58:30;;;;;;;11.73;5.85;;;-0.70;99.90;;;;;;5051340;28;20021;-76
2023/01/31 01:00:55;;;;;;;10.35;6.00;;;-0.70;99.90;;;;;;5048490;28;20021;-75
2023/01/31 01:03:21;;;;;;;10.60;6.75;;;-0.70;99.90;;;;;;5049456;28;20025;-76
2023/01/31 01:05:47;;;;;;;8.38;5.00;;;-0.60;99.90;;;;;;5051395;28;20020;-76
2023/01/31 01:08:13;;;;;;;8.57;5.25;;;-0.60;99.90;;;;;;5033369;28;20065;-76
2023/01/31 01:10:39;;;;;;;7.78;5.88;;;-0.50;99.90;;;;;;5033514;28;20028;-76
2023/01/31 01:13:05;;;;;;;11.60;6.97;;;-0.50;99.90;;;;;;5051151;28;20091;-76
2023/01/31 01:15:31;;;;;;;8.23;5.93;;;-0.50;99.90;;;;;;5032882;28;20803;-76
2023/01/31 01:17:57;;;;;;;8.52;5.43;;;-0.40;99.90;;;;;;5051203;28;20124;-74
2023/01/31 01:20:23;;;;;;;10.00;5.57;;;-0.40;99.90;;;;;;5051233;28;20511;-76
2023/01/31 01:22:49;;;;;;;9.00;5.53;;;-0.40;99.90;;;;;;5051367;28;20505;-76
2023/01/31 01:25:15;;;;;;;7.50;6.18;;;-0.40;99.90;;;;;;5051493;28;20022;-76
2023/01/31 01:27:40;;;;;;;8.50;5.85;;;-0.50;99.90;;;;;;5051205;28;20017;-76
2023/01/31 01:30:07;;;;;;;8.48;6.50;;;-0.40;99.90;;;;;;5051323;28;20384;-76
2023/01/31 01:32:33;;;;;;;8.67;5.70;;;-0.40;99.90;;;;;;5051122;28;20024;-76
2023/01/31 01:34:59;;;;;;;10.52;5.47;;;-0.40;99.90;;;;;;5051214;28;20048;-76
2023/01/31 01:37:25;;;;;;;12.85;5.95;;;-0.40;99.90;;;;;;5046845;28;20022;-76
2023/01/31 01:39:51;;;;;;;11.90;5.80;;;-0.50;99.90;;;;;;5050705;28;20443;-77
2023/01/31 01:42:21;;;;;;;8.57;5.13;;;-0.50;99.90;;;;;;5051115;28;20017;-75
2023/01/31 01:44:53;;;;;;;8.27;5.15;;;-0.50;99.90;;;;;;5051168;28;20040;-77
2023/01/31 01:47:39;;;;;;;9.48;6.25;;;-0.60;99.90;;;;;;5052486;28;20048;-76
2023/01/31 01:50:19;;;;;;;9.15;5.95;;;-0.60;99.90;;;;;;5041889;28;20147;-78
2023/01/31 01:52:50;;;;;;;10.13;5.90;;;-0.60;99.90;;;;;;5054950;28;20476;-77
2023/01/31 01:55:27;;;;;;;8.35;5.53;;;-0.60;99.90;;;;;;5055015;28;20047;-77
2023/01/31 01:57:58;;;;;;;9.33;5.63;;;-0.60;99.90;;;;;;5053176;28;20028;-78
2023/01/31 02:00:27;;;;;;;11.80;7.18;;;-0.60;99.90;;;;;;5055015;28;20017;-75
2023/01/31 02:02:57;;;;;;;8.45;5.68;;;-0.50;99.90;;;;;;5054928;28;20029;-76
2023/01/31 02:05:39;;;;;;;9.10;7.03;;;-0.60;99.90;;;;;;5044200;28;20028;-75
2023/01/31 02:08:05;;;;;;;8.57;5.32;;;-0.60;99.90;;;;;;5036426;28;20041;-77
2023/01/31 02:10:38;;;;;;;9.68;6.20;;;-0.60;99.90;;;;;;5054831;28;20025;-74
2023/01/31 02:13:04;;;;;;;8.52;6.32;;;-0.60;99.90;;;;;;5054542;28;20025;-75
2023/01/31 02:15:30;;;;;;;8.45;5.93;;;-0.60;99.90;;;;;;5036799;28;20061;-75
2023/01/31 02:17:56;;;;;;;10.13;6.22;;;-0.50;99.90;;;;;;5036453;28;20040;-76
2023/01/31 02:20:44;;;;;;;10.32;5.32;;;-0.50;99.90;;;;;;5054301;28;20480;-76
2023/01/31 02:23:37;;;;;;;5.85;5.05;;;-0.50;99.90;;;;;;5054348;28;20040;-77
2023/01/31 02:26:09;;;;;;;12.05;7.88;;;-0.50;99.90;;;;;;5047064;28;20028;-76
2023/01/31 02:29:13;;;;;;;11.05;6.55;;;-0.60;99.90;;;;;;5053841;28;20109;-75
2023/01/31 02:31:42;;;;;;;9.40;6.60;;;-0.60;99.90;;;;;;5003064;28;20407;-75
2023/01/31 02:34:11;;;;;;;9.82;5.93;;;-0.60;99.90;;;;;;5054136;28;20021;-76
2023/01/31 02:37:05;;;;;;;7.50;4.75;;;-0.60;99.90;;;;;;5050408;28;20025;-77
2023/01/31 02:39:45;;;;;;;11.30;6.85;;;-0.60;99.90;;;;;;5048264;28;20112;-76
2023/01/31 02:42:28;;;;;;;8.82;6.40;;;-0.60;99.90;;;;;;5046552;28;20079;-75
2023/01/31 02:45:07;;;;;;;11.57;7.22;;;-0.60;99.90;;;;;;5054039;28;20021;-77
2023/01/31 02:47:49;;;;;;;10.32;6.78;;;-0.60;99.90;;;;;;5053695;28;20021;-76
2023/01/31 02:50:30;;;;;;;8.65;5.97;;;-0.50;99.90;;;;;;5041992;28;20051;-76
2023/01/31 02:53:04;;;;;;;14.93;6.47;;;-0.60;99.90;;;;;;5053613;28;20025;-76
2023/01/31 02:58:26;;;;;;;10.18;6.57;;;-0.50;99.90;;;;;;5051166;28;20028;-76
2023/01/31 03:00:56;;;;;;;11.95;7.20;;;-0.50;99.90;;;;;;5053817;28;20112;-75
2023/01/31 03:03:27;;;;;;;10.45;6.25;;;-0.50;99.90;;;;;;5051364;28;20017;-75
2023/01/31 03:06:11;;;;;;;10.77;7.25;;;-0.40;99.90;;;;;;5053637;28;20029;-76
2023/01/31 03:08:40;;;;;;;10.65;7.22;;;-0.30;99.90;;;;;;5052170;28;20037;-76
2023/01/31 03:11:08;;;;;;;10.60;7.13;;;-0.30;99.90;;;;;;5049785;28;20119;-75
2023/01/31 03:14:00;;;;;;;10.75;7.40;;;-0.30;99.90;;;;;;5053313;28;20010;-76
2023/01/31 03:19:31;;;;;;;10.05;6.20;;;-0.20;99.90;;;;;;5047760;28;20055;-76
2023/01/31 03:22:23;;;;;;;11.55;7.13;;;-0.20;99.90;;;;;;5049784;28;20040;-77
2023/01/31 03:24:51;;;;;;;11.13;8.27;;;-0.20;99.90;;;;;;5053339;28;20045;-75
2023/01/31 03:27:17;;;;;;;13.35;7.25;;;-0.20;99.90;;;;;;5053331;28;20105;-76
2023/01/31 03:29:44;;;;;;;11.27;7.38;;;-0.20;99.90;;;;;;5035436;28;20017;-76
2023/01/31 03:32:23;;;;;;;10.77;7.20;;;-0.20;99.90;;;;;;5053148;28;20039;-75
2023/01/31 03:34:50;;;;;;;10.82;6.15;;;-0.20;99.90;;;;;;5053435;28;20044;-75
2023/01/31 03:37:38;;;;;;;9.57;6.43;;;-0.20;99.90;;;;;;5053089;28;20100;-74
2023/01/31 03:40:08;;;;;;;10.35;7.18;;;-0.30;99.90;;;;;;5052998;28;20541;-76
2023/01/31 03:42:49;;;;;;;13.80;8.18;;;-0.30;99.90;;;;;;5053053;28;20025;-76
2023/01/31 03:45:27;;;;;;;10.65;7.43;;;-0.20;99.90;;;;;;5045563;28;20025;-76
2023/01/31 03:47:55;;;;;;;10.73;7.63;;;-0.20;99.90;;;;;;5030983;28;20530;-76
2023/01/31 03:50:24;;;;;;;;;;;-0.20;99.90;;;;;;5053458;28;20033;-75
2023/01/31 03:53:10;;;;;;;12.57;8.93;;;-0.20;99.90;;;;;;5052907;28;19905;-76
2023/01/31 03:55:47;;;;;;;10.10;7.20;;;-0.20;99.90;;;;;;5053628;28;20063;-77
2023/01/31 03:58:18;;;;;;;12.57;7.82;;;-0.20;99.90;;;;;;5053737;28;20056;-75
2023/01/31 04:00:47;;;;;;;11.60;8.48;;;-0.20;99.90;;;;;;5053974;28;20057;-77
2023/01/31 04:03:58;;;;;;;11.57;7.20;;;-0.10;99.90;;;;;;5053025;28;20017;-75
2023/01/31 04:06:26;;;;;;;13.30;7.18;;;-0.10;99.90;;;;;;5047663;28;20029;-76
2023/01/31 04:08:51;;;;;;;10.32;7.65;;;-0.10;99.90;;;;;;5054079;28;20048;-74
2023/01/31 04:11:20;;;;;;;10.18;7.57;;;-0.10;99.90;;;;;;5050423;28;20022;-76
2023/01/31 04:13:46;;;;;;;14.70;7.35;;;-0.10;99.90;;;;;;5052555;28;20033;-75
2023/01/31 04:16:13;;;;;;;11.10;8.15;;;-0.10;99.90;;;;;;5053629;28;20103;-75
2023/01/31 04:18:39;;;;;;;14.30;8.13;;;-0.10;99.90;;;;;;5053232;28;20029;-75
2023/01/31 04:21:05;;;;;;;12.73;7.57;;;-0.10;99.90;;;;;;5053103;28;20048;-76
2023/01/31 04:23:31;;;;;;;13.52;8.77;;;-0.10;99.90;;;;;;5053112;28;20079;-76
2023/01/31 04:25:56;;;;;;;9.85;6.30;;;-0.10;99.90;;;;;;5053247;28;20029;-77
2023/01/31 04:28:22;;;;;;;9.60;6.97;;;-0.10;99.90;;;;;;5034986;28;20024;-76
2023/01/31 04:30:53;;;;;;;14.10;9.27;;;-0.20;99.90;;;;;;5035123;28;20032;-76
2023/01/31 04:33:19;;;;;;;13.50;9.38;;;-0.20;99.90;;;;;;5035298;28;20017;-75
2023/01/31 04:35:45;;;;;;;11.50;7.03;;;-0.10;99.90;;;;;;5034875;28;20484;-76
2023/01/31 04:38:11;;;;;;;13.15;8.57;;;-0.10;99.90;;;;;;5052609;28;20032;-76
2023/01/31 04:40:37;;;;;;;12.23;7.40;;;-0.10;99.90;;;;;;5053026;28;20029;-76
2023/01/31 04:43:03;;;;;;;15.52;8.25;;;0.00;99.90;;;;;;5045379;28;20027;-77
2023/01/31 04:45:29;;;;;;;12.93;8.00;;;0.00;99.90;;;;;;5034805;28;20055;-76
2023/01/31 04:47:54;;;;;;;12.07;7.97;;;0.00;99.90;;;;;;5034397;28;20029;-78
2023/01/31 04:50:20;;;;;;;11.45;8.68;;;0.00;99.90;;;;;;5052399;28;20047;-77
2023/01/31 04:52:49;;;;;;;11.43;5.80;;;0.00;99.90;;;;;;5052357;28;20021;-76
2023/01/31 04:55:15;;;;;;;11.38;8.30;;;0.10;99.90;;;;;;5052431;28;20037;-77
2023/01/31 04:57:41;;;;;;;14.32;7.30;;;0.00;99.90;;;;;;5052249;28;20118;-75
2023/01/31 05:00:08;;;;;;;13.43;8.38;;;0.00;99.90;;;;;;5052314;28;20041;-76
2023/01/31 05:02:34;;;;;;;16.10;10.00;;;0.00;99.90;;;;;;5052527;28;20056;-76
2023/01/31 05:05:00;;;;;;;13.85;9.93;;;0.00;99.90;;;;;;5034306;28;20045;-76
2023/01/31 05:07:26;;;;;;;15.25;9.02;;;0.00;99.90;;;;;;5051898;28;20372;-78
2023/01/31 05:09:52;;;;;;;14.57;8.95;;;0.00;99.90;;;;;;5052354;28;20043;-77
2023/01/31 05:12:18;;;;;;;13.27;8.35;;;0.00;99.90;;;;;;5046562;28;20083;-75
2023/01/31 05:14:44;;;;;;;15.20;9.05;;;0.00;99.90;;;;;;5052085;28;20029;-76
2023/01/31 05:17:10;;;;;;;19.55;11.27;;;0.00;99.90;;;;;;5051940;28;20468;-76
2023/01/31 05:19:36;;;;;;;12.77;9.02;;;-0.10;99.90;;;;;;5052098;28;20021;-77
2023/01/31 05:22:01;;;;;;;15.50;8.77;;;0.00;99.90;;;;;;5050897;28;20380;-76
2023/01/31 05:24:29;;;;;;;14.80;7.97;;;0.00;99.90;;;;;;5043964;28;20032;-76
2023/01/31 05:26:57;;;;;;;16.35;10.00;;;0.10;99.90;;;;;;5034269;28;20048;-77
2023/01/31 05:29:28;;;;;;;12.35;9.20;;;0.10;99.90;;;;;;5051980;28;20028;-76
2023/01/31 05:31:55;;;;;;;14.80;9.73;;;0.10;99.90;;;;;;5051919;28;20013;-76
2023/01/31 05:34:24;;;;;;;15.07;9.48;;;0.00;99.90;;;;;;5051969;28;20541;-79
2023/01/31 05:36:50;;;;;;;12.73;8.18;;;0.00;99.90;;;;;;5051950;28;20064;-76
2023/01/31 05:39:16;;;;;;;15.20;9.25;;;0.10;99.90;;;;;;5051594;28;20104;-77
2023/01/31 05:41:42;;;;;;;16.27;10.30;;;0.10;99.90;;;;;;5051691;28;20490;-78
2023/01/31 05:44:09;;;;;;;15.07;9.60;;;0.10;99.90;;;;;;5051991;28;20037;-78
2023/01/31 05:46:35;;;;;;;15.30;8.73;;;0.10;99.90;;;;;;5051977;28;20021;-76
2023/01/31 05:49:01;;;;;;;14.15;9.05;;;0.20;99.90;;;;;;5033999;28;20099;-77
2023/01/31 05:51:27;;;;;;;15.10;9.93;;;0.10;99.90;;;;;;5051643;28;20017;-76
2023/01/31 05:53:53;;;;;;;11.65;8.18;;;0.10;99.90;;;;;;5051634;28;20028;-76
2023/01/31 05:56:20;;;;;;;14.70;8.87;;;0.20;99.90;;;;;;5044038;28;20033;-78
2023/01/31 05:58:49;;;;;;;16.58;10.50;;;0.20;99.90;;;;;;5051263;28;20350;-77
2023/01/31 06:01:22;;;;;;;17.45;9.77;;;0.20;99.90;;;;;;5051676;28;20048;-78
2023/01/31 06:03:48;;;;;;;11.60;8.75;;;0.20;99.90;;;;;;5050806;28;20481;-78
2023/01/31 06:06:15;;;;;;;12.88;8.00;;;0.20;99.90;;;;;;5052035;28;20127;-77
2023/01/31 06:08:41;;;;;;;17.73;10.60;;;0.20;99.90;;;;;;5052071;28;20487;-78
2023/01/31 06:11:18;;;;;;;14.43;9.10;;;0.20;99.90;;;;;;5046945;28;20124;-77
2023/01/31 06:13:44;;;;;;;19.30;10.02;;;0.20;99.90;;;;;;5051411;28;20032;-78
2023/01/31 06:16:10;;;;;;;16.80;9.82;;;0.20;99.90;;;;;;5051974;28;20512;-79
2023/01/31 06:18:36;;;;;;;16.00;8.88;;;0.20;99.90;;;;;;5031082;28;20025;-81
2023/01/31 06:21:02;;;;;;;19.40;8.70;;;0.20;99.90;;;;;;5051197;28;20459;-76
2023/01/31 06:23:28;;;;;;;15.75;9.18;;;0.20;99.90;;;;;;5051236;28;20388;-77
2023/01/31 06:25:55;;;;;;;16.58;10.02;;;0.10;99.90;;;;;;5051436;28;20029;-77
2023/01/31 06:28:21;;;;;;;17.15;9.52;;;0.20;99.90;;;;;;5051457;28;20021;-79
2023/01/31 06:30:47;;;;;;;15.48;10.77;;;0.20;99.90;;;;;;5051553;28;20060;-78
2023/01/31 06:33:13;;;;;;;12.68;9.70;;;0.20;99.90;;;;;;5051884;28;20024;-77
2023/01/31 06:35:40;;;;;;;16.23;9.82;;;0.20;99.90;;;;;;5056872;28;20048;-79
2023/01/31 06:38:06;;;;;;;14.90;10.02;;;0.20;99.90;;;;;;5054645;28;20056;-77
2023/01/31 06:40:32;;;;;;;16.77;9.57;;;0.20;99.90;;;;;;5053422;28;20032;-76
2023/01/31 06:42:59;;;;;;;14.60;7.78;;;0.30;99.90;;;;;;5054810;28;20017;-76
2023/01/31 06:45:25;;;;;;;14.38;9.88;;;0.20;99.90;;;;;;5048538;28;20494;-76
2023/01/31 06:47:51;;;;;;;14.93;9.95;;;0.20;99.90;;;;;;5036227;28;20064;-78
2023/01/31 06:50:17;;;;;;;15.98;10.35;;;0.20;99.90;;;;;;5054453;28;20040;-75
2023/01/31 06:52:43;;;;;;;16.73;10.02;;;0.20;99.90;;;;;;5054458;28;20017;-76
2023/01/31 06:55:10;;;;;;;15.73;10.05;;;0.20;99.90;;;;;;5054154;28;20032;-74
2023/01/31 06:57:44;;;;;;;17.27;11.02;;;0.20;99.90;;;;;;5054731;28;20438;-76
2023/01/31 07:00:10;;;;;;;16.73;9.70;;;0.20;99.90;;;;;;5037371;28;20552;-76
2023/01/31 07:02:36;;;;;;;16.50;8.60;;;0.20;99.90;;;;;;5054674;28;20040;-76
2023/01/31 07:05:02;;;;;;;15.80;11.23;;;0.20;99.90;;;;;;5034492;28;20021;-77
2023/01/31 07:07:27;;;;;;;14.35;9.32;;;0.30;99.90;;;;;;5054647;28;20043;-76
2023/01/31 07:09:53;;;;;;;16.75;9.38;;;0.30;99.90;;;;;;5054478;28;20108;-76
2023/01/31 07:12:19;;;;;;;14.68;9.48;;;0.20;99.90;;;;;;5054744;28;20028;-76
2023/01/31 07:14:45;;;;;;;15.45;9.60;;;0.30;99.90;;;;;;5054779;28;20048;-77
2023/01/31 07:17:10;;;;;;;15.85;11.00;;;0.30;99.90;;;;;;5048009;28;20096;-77
2023/01/31 07:19:36;;;;;;;18.98;10.40;;;0.30;99.90;;;;;;5040906;28;20051;-77
2023/01/31 07:22:02;;;;;;;12.60;7.80;;;0.30;99.90;;;;;;5048985;28;20445;-76
2023/01/31 07:24:28;;;;;;;17.30;10.10;;;0.40;99.90;;;;;;5054649;28;20021;-77
2023/01/31 07:26:54;;;;;;;11.25;9.32;;;0.40;99.90;;;;;;5054246;28;20099;-76
2023/01/31 07:29:19;;;;;;;15.32;10.35;;;0.30;99.90;;;;;;5054308;28;20025;-76
2023/01/31 07:31:45;;;;;;;11.98;8.38;;;0.30;99.90;;;;;;5054199;28;20046;-76
2023/01/31 07:34:11;;;;;;;16.05;10.52;;;0.40;99.90;;;;;;5054074;28;20037;-77
2023/01/31 07:36:37;;;;;;;16.10;11.02;;;0.40;99.90;;;;;;5054302;28;20088;-75
2023/01/31 07:39:03;;;;;;;17.05;11.15;;;0.40;99.90;;;;;;5052920;28;20083;-78
2023/01/31 07:41:29;;;;;;;17.48;9.18;;;0.40;99.90;;;;;;5054268;28;20113;-76
2023/01/31 07:43:55;;;;;;;15.25;10.02;;;0.40;99.90;;;;;;5053588;28;20396;-77
2023/01/31 07:46:20;;;;;;;14.35;9.40;;;0.40;99.90;;;;;;5052873;28;20028;-75
2023/01/31 07:48:46;;;;;;;13.15;9.80;;;0.40;99.90;;;;;;5035737;28;20098;-76
2023/01/31 07:51:12;;;;;;;16.27;11.35;;;0.50;99.90;;;;;;5053572;28;20033;-77
2023/01/31 07:53:41;;;;;;;14.27;9.48;;;0.50;99.90;;;;;;5053925;28;20017;-75
2023/01/31 07:56:17;;;;;;;17.15;10.25;;;0.50;99.90;;;;;;5052851;28;20025;-77
2023/01/31 07:58:44;;;;;;;16.08;9.88;;;0.50;99.90;;;;;;5040916;28;20025;-76
2023/01/31 08:04:07;;;;;;;13.98;10.00;;;0.50;99.90;;;;;;5053585;28;20445;-77
2023/01/31 08:06:34;;;;;;;18.70;12.85;;;0.50;99.90;;;;;;5053098;28;20021;-76
2023/01/31 08:09:00;;;;;;;18.88;10.13;;;0.50;99.90;;;;;;5053099;28;20044;-75
2023/01/31 08:11:26;;;;;;;18.13;9.48;;;0.50;99.90;;;;;;5052539;28;20021;-75
2023/01/31 08:13:52;;;;;;;15.55;11.18;;;0.50;99.90;;;;;;5053577;28;20021;-77
2023/01/31 08:16:19;;;;;;;13.68;9.07;;;0.50;99.90;;;;;;5053311;28;20064;-77
2023/01/31 08:18:50;;;;;;;15.45;10.25;;;0.50;99.90;;;;;;5035553;28;20381;-76
2023/01/31 08:21:16;;;;;;;18.88;10.93;;;0.50;99.90;;;;;;5053189;28;20039;-76
2023/01/31 08:23:42;;;;;;;16.05;10.30;;;0.60;99.90;;;;;;5052739;28;20025;-77
2023/01/31 08:26:10;;;;;;;14.70;9.75;;;0.60;99.90;;;;;;5053107;28;20511;-76
2023/01/31 08:28:37;;;;;;;15.55;10.10;;;0.60;99.90;;;;;;5052491;28;20487;-76
2023/01/31 08:31:04;;;;;;;16.97;9.73;;;0.60;99.90;;;;;;5052948;28;20447;-77
2023/01/31 08:33:30;;;;;;;13.88;8.65;;;0.60;99.90;;;;;;5035219;28;20029;-77
2023/01/31 08:35:56;;;;;;;14.55;9.43;;;0.60;99.90;;;;;;5052600;28;20036;-76
2023/01/31 08:38:22;;;;;;;15.73;11.07;;;0.60;99.90;;;;;;5035271;28;20021;-77
2023/01/31 08:40:49;;;;;;;15.23;8.65;;;0.60;99.90;;;;;;5052961;28;20021;-77
2023/01/31 08:43:15;;;;;;;13.50;9.70;;;0.50;99.90;;;;;;5052758;28;20025;-77
2023/01/31 08:45:41;;;;;;;17.02;10.35;;;0.60;99.90;;;;;;5051635;28;20021;-78
2023/01/31 08:48:07;;;;;;;17.95;10.10;;;0.60;99.90;;;;;;5052619;28;20027;-76
2023/01/31 08:50:33;;;;;;;14.13;8.63;;;0.70;99.90;;;;;;5052671;28;20021;-77
2023/01/31 08:53:01;;;;;;;13.13;10.65;;;0.70;99.90;;;;;;5052579;28;20033;-77
2023/01/31 08:55:29;;;;;;;15.18;10.77;;;0.70;99.90;;;;;;5052847;28;20487;-75
2023/01/31 08:57:55;;;;;;;17.27;9.15;;;0.70;99.90;;;;;;5051555;28;20472;-77
2023/01/31 09:00:21;;;;;;;16.05;10.43;;;0.80;99.90;;;;;;5052614;28;20031;-78
2023/01/31 09:02:54;;;;;;;14.75;9.55;;;0.80;99.90;;;;;;5051675;28;20435;-77
2023/01/31 09:05:21;;;;;;;15.15;9.68;;;0.80;99.90;;;;;;5052427;28;20088;-76
2023/01/31 09:07:47;;;;;;;12.00;8.57;;;0.80;99.90;;;;;;5052480;28;20045;-77
2023/01/31 09:10:12;;;;;;;15.32;10.40;;;0.80;99.90;;;;;;5052328;28;20025;-76
2023/01/31 09:12:38;;;;;;;17.40;10.13;;;0.80;99.90;;;;;;5034547;28;20032;-75
2023/01/31 09:15:05;;;;;;;15.40;9.70;;;0.80;99.90;;;;;;5052142;28;20399;-77
2023/01/31 09:17:31;;;;;;;13.23;8.50;;;0.80;99.90;;;;;;5052144;28;20045;-76
2023/01/31 09:19:57;;;;;;;19.75;10.10;;;0.80;99.90;;;;;;5051272;28;20122;-76
2023/01/31 09:22:23;;;;;;;15.85;9.65;;;0.90;99.90;;;;;;5052377;28;20013;-75
2023/01/31 09:24:49;;;;;;;13.50;9.05;;;0.90;99.90;;;;;;5052440;28;20053;-76
2023/01/31 09:27:14;;;;;;;16.95;10.85;;;0.90;99.90;;;;;;5052032;28;20045;-76
2023/01/31 09:29:40;;;;;;;17.15;11.90;;;0.90;99.90;;;;;;5052241;28;20032;-74
2023/01/31 09:32:06;;;;;;;20.58;12.35;;;0.90;99.90;;;;;;5051971;28;20169;-76
2023/01/31 09:34:32;;;;;;;17.13;9.07;;;1.00;99.90;;;;;;5033098;28;20037;-75
2023/01/31 09:36:58;;;;;;;17.15;9.93;;;1.00;99.90;;;;;;5034120;28;20027;-76
2023/01/31 09:39:24;;;;;;;16.45;9.90;;;0.90;99.90;;;;;;5052042;28;20024;-74
2023/01/31 09:41:56;;;;;;;18.88;11.20;;;1.00;99.90;;;;;;5053014;28;20384;-76
2023/01/31 09:44:31;;;;;;;14.70;10.35;;;1.00;99.90;;;;;;5051973;28;20099;-75
2023/01/31 09:47:01;;;;;;;17.95;10.80;;;1.10;99.90;;;;;;5052157;28;20154;-75
2023/01/31 09:49:30;;;;;;;17.67;9.80;;;1.20;99.90;;;;;;5051939;28;20032;-77
2023/01/31 09:52:02;;;;;;;18.15;11.27;;;1.20;99.90;;;;;;5051316;28;20017;-77
2023/01/31 09:54:39;;;;;;;17.20;11.10;;;1.10;99.90;;;;;;5052056;28;20033;-76
2023/01/31 09:57:11;;;;;;;;;;;1.10;99.90;;;;;;5052411;28;20502;-76
2023/01/31 10:00:15;;;;;;;17.38;9.75;;;1.20;99.90;;;;;;5033826;28;19905;-75
2023/01/31 10:02:43;;;;;;;19.08;10.82;;;1.20;99.90;;;;;;5052131;28;20017;-77
2023/01/31 10:05:52;;;;;;;18.08;10.40;;;1.20;99.90;;;;;;5051884;28;20111;-77
2023/01/31 10:08:43;;;;;;;13.60;10.55;;;1.20;99.90;;;;;;5048709;28;20080;-77
2023/01/31 10:11:36;;;;;;;15.27;10.38;;;1.20;99.90;;;;;;5055584;28;20125;-77
2023/01/31 10:14:32;;;;;;;14.43;9.07;;;1.20;99.90;;;;;;5051831;28;20503;-77
2023/01/31 10:17:04;;;;;;;15.80;10.15;;;1.30;99.90;;;;;;5048776;28;20120;-78
2023/01/31 10:19:44;;;;;;;21.48;11.82;;;1.20;99.90;;;;;;5055703;28;20154;-76
2023/01/31 10:22:18;;;;;;;15.25;9.35;;;1.20;99.90;;;;;;5055096;28;20021;-76
2023/01/31 10:25:05;;;;;;;17.40;9.77;;;1.30;99.90;;;;;;5036624;28;20025;-76
2023/01/31 10:27:41;;;;;;;17.20;9.77;;;1.40;99.90;;;;;;5041834;28;20098;-77
2023/01/31 10:30:16;;;;;;;20.08;11.77;;;1.50;99.90;;;;;;5055586;28;20032;-78
2023/01/31 10:32:47;;;;;;;15.18;10.73;;;1.50;99.90;;;;;;5047318;28;20028;-77
2023/01/31 10:35:24;;;;;;;17.40;10.48;;;1.50;99.90;;;;;;5055349;28;20122;-77
2023/01/31 10:37:58;;;;;;;15.82;9.65;;;1.60;99.90;;;;;;5042852;28;20108;-77
2023/01/31 10:40:36;;;;;;;14.75;10.32;;;1.70;99.90;;;;;;5055017;28;20067;-77
2023/01/31 10:43:26;;;;;;;15.07;9.27;;;1.80;99.90;;;;;;5054285;28;20025;-76
2023/01/31 10:45:52;;;;;;;16.42;10.15;;;1.80;99.90;;;;;;5055029;28;20545;-77
2023/01/31 10:48:25;;;;;;;19.17;10.52;;;1.80;99.90;;;;;;5054758;28;20017;-76
2023/01/31 10:51:02;;;;;;;12.57;9.63;;;1.80;99.90;;;;;;5037189;28;20025;-76
2023/01/31 10:53:34;;;;;;;16.55;9.00;;;1.80;99.70;;;;;;5054913;28;20083;-77
2023/01/31 10:56:18;;;;;;;13.43;8.45;;;1.80;99.60;;;;;;5054915;28;20037;-77
2023/01/31 10:58:45;;;;;;;12.85;8.95;;;1.70;99.50;;;;;;5050199;28;20032;-77
2023/01/31 11:01:13;;;;;;;14.68;9.77;;;1.70;99.30;;;;;;5054889;28;20026;-77
2023/01/31 11:03:45;;;;;;;13.98;10.00;;;1.60;99.50;;;;;;5054557;28;20102;-76
2023/01/31 11:06:12;;;;;;;13.63;9.77;;;1.60;99.70;;;;;;5054654;28;20025;-76
2023/01/31 11:08:56;;;;;;;16.53;10.57;;;1.70;99.70;;;;;;5036673;28;20041;-78
2023/01/31 11:11:24;;;;;;;14.30;9.77;;;1.70;99.70;;;;;;5054687;28;20496;-75
2023/01/31 11:14:06;;;;;;;16.02;10.15;;;1.80;99.80;;;;;;5054551;28;20487;-78
2023/01/31 11:16:38;;;;;;;17.08;10.68;;;1.90;99.70;;;;;;5036070;28;20033;-77
2023/01/31 11:19:24;;;;;;;17.15;10.00;;;1.90;99.30;;;;;;5040691;28;20032;-77
2023/01/31 11:21:54;;;;;;;16.92;10.73;;;1.80;99.30;;;;;;5054600;28;20056;-76
2023/01/31 11:24:27;;;;;;;15.57;8.93;;;1.70;99.10;;;;;;5054334;28;20083;-77
2023/01/31 11:27:03;;;;;;;12.60;8.45;;;1.70;99.30;;;;;;5041595;28;20426;-75
2023/01/31 11:29:37;;;;;;;17.60;10.65;;;1.70;99.20;;;;;;5036263;28;20029;-77
2023/01/31 11:32:16;;;;;;;14.50;8.70;;;1.70;99.30;;;;;;5053224;28;20025;-78
2023/01/31 11:34:55;;;;;;;17.17;10.38;;;1.70;99.30;;;;;;5036377;28;20032;-77
2023/01/31 11:37:21;;;;;;;16.05;10.65;;;1.60;99.50;;;;;;5035863;28;20105;-75
2023/01/31 11:40:13;;;;;;;17.98;10.10;;;1.70;99.30;;;;;;5053970;28;20059;-77
2023/01/31 11:42:50;;;;;;;14.48;9.07;;;1.70;99.50;;;;;;5053690;28;20032;-80
2023/01/31 11:45:19;;;;;;;13.90;10.52;;;1.80;99.50;;;;;;5054127;28;20024;-79
2023/01/31 11:48:21;;;;;;;19.85;11.18;;;1.80;99.30;;;;;;5052632;28;20037;-76
2023/01/31 11:50:55;;;;;;;15.98;9.85;;;1.80;99.20;;;;;;5005090;28;20029;-74
2023/01/31 11:53:24;;;;;;;15.40;9.68;;;1.80;99.10;;;;;;5053823;28;20099;-78
2023/01/31 11:55:53;;;;;;;15.35;8.55;;;1.80;99.30;;;;;;5035680;28;20067;-77
2023/01/31 11:58:33;;;;;;;13.75;9.52;;;1.80;99.10;;;;;;5052890;28;20418;-78
2023/01/31 12:01:16;;;;;;;21.58;12.13;;;1.70;99.20;;;;;;5053561;28;20029;-78
2023/01/31 12:03:57;;;;;;;16.55;10.52;;;1.80;99.40;;;;;;5039734;28;20017;-76
2023/01/31 12:06:30;;;;;;;15.55;9.75;;;1.70;99.30;;;;;;5035718;28;20029;-76
2023/01/31 12:08:58;;;;;;;14.07;7.20;;;1.80;99.30;;;;;;5053944;28;20048;-77
2023/01/31 12:11:32;;;;;;;13.68;10.18;;;1.80;99.30;;;;;;5053628;28;20443;-77
2023/01/31 12:14:14;;;;;;;10.63;8.00;;;1.70;99.20;;;;;;5042084;28;20032;-78
2023/01/31 12:16:42;;;;;;;14.85;10.50;;;1.60;99.20;;;;;;5053156;28;20025;-76
2023/01/31 12:19:08;;;;;;;;;;;1.50;99.30;;;;;;5054071;28;20067;-79
2023/01/31 12:21:39;;;;;;;14.10;9.23;;;1.50;99.50;;;;;;5053189;28;19904;-77
2023/01/31 12:24:20;;;;;;;19.02;12.43;;;1.50;99.60;;;;;;5035450;28;20487;-77
2023/01/31 12:26:48;;;;;;;12.95;8.23;;;1.50;99.80;;;;;;5053226;28;20025;-77
2023/01/31 12:29:43;;;;;;;16.67;9.15;;;1.50;99.70;;;;;;5038868;28;20025;-76
2023/01/31 12:32:24;;;;;;;11.68;9.30;;;1.40;99.80;;;;;;5052618;28;20029;-79
2023/01/31 12:35:01;;;;;;;15.65;9.32;;;1.40;99.90;;;;;;5034961;28;20087;-77
2023/01/31 12:37:36;;;;;;;15.68;8.30;;;1.50;99.90;;;;;;5052831;28;20013;-78
2023/01/31 12:40:04;;;;;;;18.15;11.20;;;1.60;99.90;;;;;;5053271;28;20029;-77
2023/01/31 12:42:36;;;;;;;14.48;9.00;;;1.50;99.90;;;;;;5038905;28;20053;-77
2023/01/31 12:45:21;;;;;;;15.30;9.05;;;1.50;99.70;;;;;;5053045;28;20076;-76
2023/01/31 12:47:54;;;;;;;16.05;10.20;;;1.40;99.80;;;;;;5051673;28;20029;-77
2023/01/31 12:50:39;;;;;;;17.58;9.65;;;1.30;99.90;;;;;;5052729;28;20037;-78
2023/01/31 12:53:08;;;;;;;14.07;8.82;;;1.40;99.90;;;;;;5052632;28;20083;-77
2023/01/31 12:55:55;;;;;;;14.70;9.88;;;1.40;99.90;;;;;;5052774;28;20033;-78
2023/01/31 12:58:45;;;;;;;17.25;8.50;;;1.30;99.90;;;;;;5052695;28;20024;-76
2023/01/31 13:01:32;;;;;;;16.98;8.32;;;1.20;99.90;;;;;;5052756;28;20096;-77
2023/01/31 13:04:05;;;;;;;;;;;1.20;99.90;;;;;;5032041;28;20029;-77
2023/01/31 13:06:36;;;;;;;20.83;13.20;;;1.20;99.90;;;;;;5052216;28;19909;-79
2023/01/31 13:09:22;;;;;;;10.57;8.18;;;1.10;99.90;;;;;;5052682;28;20488;-78
2023/01/31 13:12:04;;;;;;;14.33;10.27;;;1.10;99.90;;;;;;5052474;28;20029;-77